Utida, Utah
Current Conditions -  °F | °C
As of 7:51 PM on Saturday 20 Dec 2014 (Local Time) from KLGU Reporting Station
Overcast Overcast  
Wind Chill: 36°   Ceiling: 3100
Heat Index: 39°   Visibility: 10mi
Dew Point: 34°   Wind: 5mph
Humidity: 82%   Direction: 120°ESE
Pressure: 30.04"   Gusts: NA
Location:  41.9655°N, 112.049°W
Report Text: KLGU 210251Z AUTO 12004KT 10SM OVC031 04/01 A3004 RMK AO2 SLP178 T00390011 55004
Loading
Personal Weather Stations






























Interactive Weather Map New forecast layout! Learn more

10-Day Weather Forecast

Advertisements
Track Severe Weather on mobile